createdAt,value
2022-11-06T00:01:26.605Z,99.90
2022-11-06T00:03:54.183Z,99.90
2022-11-06T00:06:40.205Z,99.90
2022-11-06T00:09:10.775Z,99.90
2022-11-06T00:11:39.429Z,99.90
2022-11-06T00:14:06.921Z,99.90
2022-11-06T00:16:34.384Z,99.90
2022-11-06T00:19:01.960Z,99.90
2022-11-06T00:21:30.933Z,99.90
2022-11-06T00:24:00.640Z,99.90
2022-11-06T00:26:29.509Z,99.90
2022-11-06T00:28:57.503Z,99.90
2022-11-06T00:31:28.872Z,99.90
2022-11-06T00:33:58.749Z,99.90
2022-11-06T00:36:27.504Z,99.90
2022-11-06T00:38:56.648Z,99.90
2022-11-06T00:41:24.517Z,99.90
2022-11-06T00:43:53.725Z,99.90
2022-11-06T00:46:21.168Z,99.90
2022-11-06T00:48:48.655Z,99.90
2022-11-06T00:51:19.233Z,99.90
2022-11-06T00:53:46.517Z,99.90
2022-11-06T00:56:18.794Z,99.90
2022-11-06T00:58:47.184Z,99.90
2022-11-06T01:01:14.319Z,99.90
2022-11-06T01:03:44.703Z,99.90
2022-11-06T01:06:17.342Z,99.90
2022-11-06T01:08:44.897Z,99.90
2022-11-06T01:11:14.612Z,99.90
2022-11-06T01:13:42.988Z,99.90
2022-11-06T01:16:12.098Z,99.90
2022-11-06T01:18:40.068Z,99.90
2022-11-06T01:21:28.291Z,99.90
2022-11-06T01:24:00.609Z,99.90
2022-11-06T01:26:37.882Z,99.90
2022-11-06T01:29:09.162Z,99.90
2022-11-06T01:31:36.562Z,99.90
2022-11-06T01:34:04.880Z,99.90
2022-11-06T01:36:32.526Z,99.90
2022-11-06T01:39:01.660Z,99.90
2022-11-06T01:41:35.745Z,99.90
2022-11-06T01:44:23.798Z,99.90
2022-11-06T01:46:50.800Z,99.90
2022-11-06T01:49:18.217Z,99.90
2022-11-06T01:51:47.886Z,99.90
2022-11-06T01:54:15.867Z,99.90
2022-11-06T01:56:46.890Z,99.90
2022-11-06T01:59:18.145Z,99.90
2022-11-06T02:01:46.253Z,99.90
2022-11-06T02:04:21.082Z,99.90
2022-11-06T02:06:49.002Z,99.90
2022-11-06T02:09:17.113Z,99.90
2022-11-06T02:11:55.046Z,99.90
2022-11-06T02:14:51.139Z,99.90
2022-11-06T02:17:54.171Z,99.90
2022-11-06T02:20:47.453Z,99.90
2022-11-06T02:23:48.650Z,99.90
2022-11-06T02:26:48.470Z,99.90
2022-11-06T02:29:26.114Z,99.90
2022-11-06T02:32:02.134Z,99.90
2022-11-06T02:34:33.728Z,99.90
2022-11-06T02:37:09.900Z,99.90
2022-11-06T02:39:56.793Z,99.90
2022-11-06T02:42:27.836Z,99.90
2022-11-06T02:44:57.514Z,99.90
2022-11-06T02:47:29.720Z,99.90
2022-11-06T02:50:11.412Z,99.90
2022-11-06T02:52:44.689Z,99.90
2022-11-06T02:55:27.836Z,99.90
2022-11-06T02:58:04.083Z,99.90
2022-11-06T03:00:34.194Z,99.90
2022-11-06T03:03:09.720Z,99.90
2022-11-06T03:05:49.495Z,99.90
2022-11-06T03:08:42.533Z,99.90
2022-11-06T03:11:20.348Z,99.90
2022-11-06T03:13:59.388Z,99.90
2022-11-06T03:16:39.644Z,99.90
2022-11-06T03:19:36.790Z,99.90
2022-11-06T03:22:27.532Z,99.90
2022-11-06T03:25:18.829Z,99.90
2022-11-06T03:28:11.042Z,99.90
2022-11-06T03:30:51.583Z,99.90
2022-11-06T03:33:33.602Z,99.90
2022-11-06T03:36:09.523Z,99.90
2022-11-06T03:38:53.521Z,99.90
2022-11-06T03:41:40.189Z,99.90
2022-11-06T03:44:21.492Z,99.90
2022-11-06T03:47:05.748Z,99.90
2022-11-06T03:49:42.213Z,99.90
2022-11-06T03:52:22.774Z,99.90
2022-11-06T03:55:26.074Z,99.90
2022-11-06T03:57:59.492Z,99.90
2022-11-06T04:00:31.124Z,99.90
2022-11-06T04:03:08.133Z,99.90
2022-11-06T04:06:19.186Z,99.90
2022-11-06T04:09:21.766Z,99.90
2022-11-06T04:12:25.266Z,99.90
2022-11-06T04:15:13.621Z,99.90
2022-11-06T04:21:45.599Z,99.90
2022-11-06T04:25:06.945Z,99.90
2022-11-06T04:27:56.052Z,99.90
2022-11-06T04:30:37.266Z,99.90
2022-11-06T04:33:38.587Z,99.90
2022-11-06T04:36:41.403Z,99.90
2022-11-06T04:39:24.120Z,99.90
2022-11-06T04:42:41.546Z,99.90
2022-11-06T04:45:17.382Z,99.90
2022-11-06T04:47:48.856Z,99.90
2022-11-06T04:50:25.913Z,99.90
2022-11-06T04:53:10.326Z,99.90
2022-11-06T04:56:04.060Z,99.90
2022-11-06T04:58:37.369Z,99.90
2022-11-06T05:01:09.685Z,99.90
2022-11-06T05:03:43.227Z,99.90
2022-11-06T05:06:17.364Z,99.90
2022-11-06T05:08:48.444Z,99.90
2022-11-06T05:11:16.471Z,99.90
2022-11-06T05:13:44.838Z,99.90
2022-11-06T05:16:13.434Z,99.90
2022-11-06T05:18:45.476Z,99.90
2022-11-06T05:21:35.019Z,99.90
2022-11-06T05:24:15.940Z,99.90
2022-11-06T05:26:44.199Z,99.90
2022-11-06T05:29:13.996Z,99.90
2022-11-06T05:31:44.915Z,99.90
2022-11-06T05:34:13.120Z,99.90
2022-11-06T05:36:47.209Z,99.90
2022-11-06T05:39:15.718Z,99.90
2022-11-06T05:41:46.003Z,99.90
2022-11-06T05:44:14.234Z,99.90
2022-11-06T05:46:48.813Z,99.90
2022-11-06T05:49:18.230Z,99.90
2022-11-06T05:51:48.675Z,99.90
2022-11-06T05:54:24.625Z,99.90
2022-11-06T05:56:52.596Z,99.90
2022-11-06T05:59:20.738Z,99.90
2022-11-06T06:01:54.422Z,99.90
2022-11-06T06:04:23.771Z,99.90
2022-11-06T06:06:52.771Z,99.90
2022-11-06T06:09:22.902Z,99.90
2022-11-06T06:11:54.609Z,99.90
2022-11-06T06:14:25.183Z,99.90
2022-11-06T06:17:00.511Z,99.90
2022-11-06T06:19:33.608Z,99.90
2022-11-06T06:22:10.895Z,99.90
2022-11-06T06:24:42.034Z,99.90
2022-11-06T06:27:13.142Z,99.90
2022-11-06T06:29:41.355Z,99.90
2022-11-06T06:32:09.390Z,99.90
2022-11-06T06:34:44.050Z,99.90
2022-11-06T06:37:20.142Z,99.90
2022-11-06T06:39:53.532Z,99.90
2022-11-06T06:42:21.584Z,99.90
2022-11-06T06:44:51.969Z,99.90
2022-11-06T06:47:19.988Z,99.90
2022-11-06T06:49:50.820Z,99.90
2022-11-06T06:52:25.129Z,99.90
2022-11-06T06:54:55.773Z,99.90
2022-11-06T06:57:23.845Z,99.90
2022-11-06T06:59:54.549Z,99.90
2022-11-06T07:02:22.689Z,99.90
2022-11-06T07:04:55.304Z,99.90
2022-11-06T07:07:25.015Z,99.90
2022-11-06T07:09:52.982Z,99.90
2022-11-06T07:12:23.945Z,99.90
2022-11-06T07:14:58.060Z,99.90
2022-11-06T07:17:26.287Z,99.90
2022-11-06T07:19:54.200Z,99.90
2022-11-06T07:22:36.600Z,99.90
2022-11-06T07:25:11.039Z,99.90
2022-11-06T07:27:42.261Z,99.90
2022-11-06T07:30:13.674Z,99.90
2022-11-06T07:32:51.643Z,99.90
2022-11-06T07:35:22.231Z,99.90
2022-11-06T07:38:04.564Z,99.90
2022-11-06T07:40:38.903Z,99.90
2022-11-06T07:43:15.434Z,99.90
2022-11-06T07:45:46.687Z,99.90
2022-11-06T07:48:17.573Z,99.90
2022-11-06T07:50:47.859Z,99.70
2022-11-06T07:53:18.327Z,99.00
2022-11-06T07:55:53.805Z,97.70
2022-11-06T07:58:26.076Z,97.10
2022-11-06T08:00:58.941Z,96.40
2022-11-06T08:03:30.869Z,95.80
2022-11-06T08:06:00.253Z,94.50
2022-11-06T08:08:31.984Z,93.70
2022-11-06T08:11:08.261Z,93.60
2022-11-06T08:13:40.752Z,93.20
2022-11-06T08:16:16.900Z,92.10
2022-11-06T08:18:48.221Z,91.80
2022-11-06T08:21:27.568Z,90.80
2022-11-06T08:24:16.449Z,91.20
2022-11-06T08:26:50.528Z,89.60
2022-11-06T08:29:24.230Z,86.40
2022-11-06T08:31:52.381Z,84.90
2022-11-06T08:34:20.967Z,81.40
2022-11-06T08:36:57.053Z,80.60
2022-11-06T08:39:27.381Z,80.00
2022-11-06T08:41:55.200Z,76.20
2022-11-06T08:44:25.807Z,71.00
2022-11-06T08:47:00.522Z,72.20
2022-11-06T08:49:31.424Z,70.50
2022-11-06T08:52:01.738Z,67.20
2022-11-06T08:54:29.713Z,66.60
2022-11-06T08:57:00.602Z,66.10
2022-11-06T08:59:28.470Z,60.70
2022-11-06T09:02:01.167Z,57.40
2022-11-06T09:04:32.990Z,58.70
2022-11-06T09:07:10.257Z,58.20
2022-11-06T09:09:43.302Z,57.10
2022-11-06T09:12:13.316Z,56.10
2022-11-06T09:14:51.390Z,54.10
2022-11-06T09:17:30.016Z,53.30
2022-11-06T09:20:00.805Z,53.10
2022-11-06T09:22:35.948Z,52.80
2022-11-06T09:25:05.943Z,51.70
2022-11-06T09:27:40.109Z,51.60
2022-11-06T09:30:24.342Z,51.20
2022-11-06T09:33:00.378Z,48.90
2022-11-06T09:35:32.997Z,48.90
2022-11-06T09:38:05.658Z,48.60
2022-11-06T09:40:54.006Z,49.10
2022-11-06T09:44:04.243Z,47.40
2022-11-06T09:46:39.570Z,47.30
2022-11-06T09:49:33.786Z,48.40
2022-11-06T09:52:27.761Z,48.40
2022-11-06T09:55:10.145Z,46.90
2022-11-06T09:57:55.471Z,49.00
2022-11-06T10:00:27.409Z,48.00
2022-11-06T10:03:06.948Z,50.00
2022-11-06T10:05:37.711Z,50.60
2022-11-06T10:08:22.693Z,50.90
2022-11-06T10:11:22.877Z,49.40
2022-11-06T10:14:03.157Z,51.20
2022-11-06T10:16:31.614Z,52.70
2022-11-06T10:19:14.533Z,52.30
2022-11-06T10:21:54.295Z,52.70
2022-11-06T10:24:33.948Z,53.40
2022-11-06T10:27:07.932Z,54.50
2022-11-06T10:30:03.291Z,54.20
2022-11-06T10:32:54.941Z,54.10
2022-11-06T10:35:43.313Z,55.10
2022-11-06T10:38:49.341Z,55.50
2022-11-06T10:41:41.099Z,55.20
2022-11-06T10:44:23.373Z,56.30
2022-11-06T10:47:01.744Z,57.80
2022-11-06T10:50:05.881Z,58.10
2022-11-06T10:52:53.586Z,57.10
2022-11-06T10:55:55.196Z,57.60
2022-11-06T10:58:32.205Z,58.50
2022-11-06T11:01:06.816Z,59.10
2022-11-06T11:03:43.735Z,59.20
2022-11-06T11:06:17.510Z,59.70
2022-11-06T11:08:47.195Z,58.50
2022-11-06T11:11:19.287Z,59.10
2022-11-06T11:14:12.757Z,59.60
2022-11-06T11:16:46.691Z,59.90
2022-11-06T11:19:32.474Z,60.20
2022-11-06T11:22:05.410Z,60.20
2022-11-06T11:24:33.967Z,59.60
2022-11-06T11:27:06.500Z,61.60
2022-11-06T11:29:50.960Z,62.50
2022-11-06T11:32:23.150Z,63.40
2022-11-06T11:34:56.896Z,62.90
2022-11-06T11:37:32.208Z,61.80
2022-11-06T11:40:22.861Z,63.30
2022-11-06T11:42:54.823Z,64.70
2022-11-06T11:45:28.764Z,65.50
2022-11-06T11:48:17.185Z,67.10
2022-11-06T11:50:51.071Z,66.70
2022-11-06T11:53:23.564Z,67.00
2022-11-06T11:55:55.142Z,68.40
2022-11-06T11:58:28.005Z,68.10
2022-11-06T12:01:09.595Z,66.00
2022-11-06T12:03:47.924Z,66.70
2022-11-06T12:06:21.778Z,66.60
2022-11-06T12:08:54.000Z,66.30
2022-11-06T12:11:29.209Z,67.40
2022-11-06T12:14:28.930Z,67.60
2022-11-06T12:17:06.776Z,68.30
2022-11-06T12:19:40.637Z,68.30
2022-11-06T12:22:20.916Z,69.90
2022-11-06T12:25:07.504Z,70.90
2022-11-06T12:27:53.146Z,70.10
2022-11-06T12:30:25.371Z,69.50
2022-11-06T12:33:13.821Z,70.10
2022-11-06T12:35:55.614Z,70.60
2022-11-06T12:38:42.222Z,70.70
2022-11-06T12:41:36.396Z,71.00
2022-11-06T12:44:12.217Z,71.90
2022-11-06T12:46:57.336Z,72.10
2022-11-06T12:50:03.155Z,73.10
2022-11-06T12:52:56.136Z,72.90
2022-11-06T12:55:44.464Z,72.80
2022-11-06T12:58:21.473Z,72.60
2022-11-06T13:01:11.364Z,73.30
2022-11-06T13:03:50.989Z,72.80
2022-11-06T13:07:03.179Z,73.00
2022-11-06T13:09:36.267Z,72.10
2022-11-06T13:12:32.800Z,73.10
2022-11-06T13:15:31.818Z,74.30
2022-11-06T13:18:09.367Z,75.50
2022-11-06T13:21:20.239Z,76.90
2022-11-06T13:24:10.458Z,77.60
2022-11-06T13:26:47.944Z,77.30
2022-11-06T13:29:37.239Z,77.20
2022-11-06T13:32:13.367Z,77.60
2022-11-06T13:34:43.542Z,78.10
2022-11-06T13:37:23.627Z,78.40
2022-11-06T13:40:10.590Z,79.30
2022-11-06T13:42:44.165Z,78.80
2022-11-06T13:45:18.745Z,78.00
2022-11-06T13:48:01.251Z,78.70
2022-11-06T13:50:45.453Z,77.60
2022-11-06T13:53:30.211Z,77.80
2022-11-06T13:56:37.320Z,77.60
2022-11-06T13:59:29.794Z,77.10
2022-11-06T14:02:31.159Z,77.30
2022-11-06T14:05:22.332Z,77.40
2022-11-06T14:07:54.783Z,78.00
2022-11-06T14:10:36.860Z,78.70
2022-11-06T14:13:07.323Z,78.50
2022-11-06T14:15:38.655Z,78.50
2022-11-06T14:18:07.754Z,77.80
2022-11-06T14:20:40.430Z,77.70
2022-11-06T14:23:31.338Z,78.10
2022-11-06T14:26:09.342Z,77.90
2022-11-06T14:28:43.561Z,78.30
2022-11-06T14:31:15.072Z,78.30
2022-11-06T14:33:45.450Z,78.70
2022-11-06T14:36:32.655Z,79.30
2022-11-06T14:39:08.280Z,79.30
2022-11-06T14:41:40.910Z,79.30
2022-11-06T14:44:48.171Z,79.10
2022-11-06T14:47:31.099Z,78.80
2022-11-06T14:50:04.793Z,79.30
2022-11-06T14:52:56.215Z,79.50
2022-11-06T14:55:38.413Z,79.70
2022-11-06T14:58:40.463Z,79.70
2022-11-06T15:01:29.199Z,80.60
2022-11-06T15:04:22.809Z,80.40
2022-11-06T15:07:10.649Z,80.70
2022-11-06T15:10:03.565Z,80.70
2022-11-06T15:13:24.543Z,81.00
2022-11-06T15:16:11.526Z,80.40
2022-11-06T15:18:51.381Z,80.60
2022-11-06T15:21:40.042Z,81.60
2022-11-06T15:24:28.622Z,84.10
2022-11-06T15:27:23.313Z,87.10
2022-11-06T15:30:17.667Z,88.30
2022-11-06T15:32:58.330Z,89.30
2022-11-06T15:35:43.092Z,88.20
2022-11-06T15:38:36.046Z,89.50
2022-11-06T15:41:07.290Z,89.50
2022-11-06T15:43:40.883Z,90.20
2022-11-06T15:46:38.470Z,90.30
2022-11-06T15:49:23.934Z,89.60
2022-11-06T15:52:15.862Z,90.30
2022-11-06T15:54:59.877Z,90.90
2022-11-06T15:57:32.592Z,91.90
2022-11-06T16:00:21.140Z,92.10
2022-11-06T16:03:10.869Z,92.50
2022-11-06T16:05:44.808Z,92.80
2022-11-06T16:08:30.229Z,92.90
2022-11-06T16:11:13.257Z,93.20
2022-11-06T16:13:45.636Z,93.80
2022-11-06T16:16:46.250Z,93.60
2022-11-06T16:19:37.974Z,93.50
2022-11-06T16:22:16.492Z,93.50
2022-11-06T16:25:05.962Z,94.10
2022-11-06T16:27:43.457Z,94.20
2022-11-06T16:30:25.315Z,94.40
2022-11-06T16:32:57.914Z,94.40
2022-11-06T16:35:36.239Z,94.70
2022-11-06T16:38:45.862Z,95.00
2022-11-06T16:41:14.073Z,95.80
2022-11-06T16:43:48.173Z,96.40
2022-11-06T16:46:20.136Z,96.40
2022-11-06T16:49:52.896Z,96.80
2022-11-06T16:52:40.452Z,97.00
2022-11-06T16:55:18.949Z,97.80
2022-11-06T16:57:59.621Z,98.10
2022-11-06T17:00:31.839Z,98.20
2022-11-06T17:03:08.054Z,98.70
2022-11-06T17:05:39.647Z,99.10
2022-11-06T17:08:21.584Z,99.40
2022-11-06T17:10:56.332Z,99.90
2022-11-06T17:13:41.174Z,99.70
2022-11-06T17:16:16.807Z,99.80
2022-11-06T17:18:46.158Z,99.90
2022-11-06T17:21:18.006Z,99.90
2022-11-06T17:23:51.295Z,99.90
2022-11-06T17:26:23.876Z,99.90
2022-11-06T17:28:54.113Z,99.90
2022-11-06T17:31:27.785Z,99.90
2022-11-06T17:33:59.876Z,99.90
2022-11-06T17:36:32.752Z,99.90
2022-11-06T17:39:05.119Z,99.90
2022-11-06T17:41:36.890Z,99.90
2022-11-06T17:44:09.869Z,99.90
2022-11-06T17:46:43.263Z,99.90
2022-11-06T17:49:18.289Z,99.90
2022-11-06T17:51:53.471Z,99.90
2022-11-06T17:54:28.271Z,99.90
2022-11-06T17:57:01.081Z,99.90
2022-11-06T17:59:36.880Z,99.90
2022-11-06T18:02:08.516Z,99.90
2022-11-06T18:04:39.552Z,99.90
2022-11-06T18:07:24.268Z,99.90
2022-11-06T18:10:02.724Z,99.90
2022-11-06T18:12:32.893Z,99.90
2022-11-06T18:15:22.894Z,99.90
2022-11-06T18:17:58.850Z,99.90
2022-11-06T18:20:32.860Z,99.90
2022-11-06T18:23:06.561Z,99.90
2022-11-06T18:25:37.603Z,99.90
2022-11-06T18:28:12.044Z,99.90
2022-11-06T18:30:45.915Z,99.90
2022-11-06T18:33:25.868Z,99.90
2022-11-06T18:36:00.297Z,99.90
2022-11-06T18:38:36.551Z,99.90
2022-11-06T18:41:24.396Z,99.90
2022-11-06T18:44:03.797Z,99.90
2022-11-06T18:46:37.127Z,99.90
2022-11-06T18:49:19.836Z,99.90
2022-11-06T18:51:50.259Z,99.90
2022-11-06T18:54:22.835Z,99.90
2022-11-06T18:56:54.203Z,99.90
2022-11-06T18:59:27.181Z,99.90
2022-11-06T19:02:01.035Z,99.90
2022-11-06T19:04:31.865Z,99.90
2022-11-06T19:07:02.850Z,99.90
2022-11-06T19:09:35.031Z,99.90
2022-11-06T19:12:10.174Z,99.90
2022-11-06T19:14:47.448Z,99.90
2022-11-06T19:17:34.358Z,99.90
2022-11-06T19:20:15.015Z,99.90
2022-11-06T19:23:16.313Z,99.90
2022-11-06T19:26:10.440Z,99.90
2022-11-06T19:29:07.915Z,99.90
2022-11-06T19:31:49.480Z,99.90
2022-11-06T19:34:28.688Z,99.90
2022-11-06T19:37:01.518Z,99.90
2022-11-06T19:39:39.420Z,99.90
2022-11-06T19:42:10.461Z,99.90
2022-11-06T19:44:46.328Z,99.90
2022-11-06T19:47:24.419Z,99.90
2022-11-06T19:49:58.739Z,99.90
2022-11-06T19:52:41.171Z,99.90
2022-11-06T19:55:24.767Z,99.90
2022-11-06T19:58:07.601Z,99.90
2022-11-06T20:00:46.732Z,99.90
2022-11-06T20:03:31.556Z,99.90
2022-11-06T20:06:16.716Z,99.90
2022-11-06T20:08:55.623Z,99.90
2022-11-06T20:11:40.696Z,99.90
2022-11-06T20:14:22.559Z,99.90
2022-11-06T20:16:54.034Z,99.90
2022-11-06T20:19:33.947Z,99.90
2022-11-06T20:22:07.975Z,99.90
2022-11-06T20:24:55.083Z,99.90
2022-11-06T20:27:34.320Z,99.90
2022-11-06T20:30:30.056Z,99.90
2022-11-06T20:33:07.649Z,99.90
2022-11-06T20:35:40.522Z,99.90
2022-11-06T20:38:15.754Z,99.90
2022-11-06T20:41:00.722Z,99.90
2022-11-06T20:43:41.348Z,99.90
2022-11-06T20:46:25.963Z,99.90
2022-11-06T20:49:01.410Z,99.90
2022-11-06T20:51:43.045Z,99.90
2022-11-06T20:54:26.820Z,99.90
2022-11-06T20:57:00.010Z,99.90
2022-11-06T20:59:30.275Z,99.90
2022-11-06T21:02:04.119Z,99.90
2022-11-06T21:04:33.542Z,99.90
2022-11-06T21:07:02.329Z,99.90
2022-11-06T21:09:32.881Z,99.90
2022-11-06T21:12:02.815Z,99.90
2022-11-06T21:14:32.915Z,99.90
2022-11-06T21:17:08.746Z,99.90
2022-11-06T21:19:37.839Z,99.90
2022-11-06T21:22:09.985Z,99.90
2022-11-06T21:24:39.431Z,99.90
2022-11-06T21:27:08.544Z,99.90
2022-11-06T21:29:42.338Z,99.90
2022-11-06T21:32:10.639Z,99.90
2022-11-06T21:34:42.368Z,99.90
2022-11-06T21:37:20.356Z,99.90
2022-11-06T21:39:51.814Z,99.90
2022-11-06T21:42:19.893Z,99.90
2022-11-06T21:44:49.500Z,99.90
2022-11-06T21:47:23.232Z,99.90
2022-11-06T21:50:00.623Z,99.90
2022-11-06T21:52:53.527Z,99.90
2022-11-06T21:55:42.898Z,99.90
2022-11-06T21:58:11.961Z,99.90
2022-11-06T22:00:41.115Z,99.90
2022-11-06T22:03:09.161Z,99.90
2022-11-06T22:05:37.945Z,99.90
2022-11-06T22:08:07.173Z,99.90
2022-11-06T22:10:35.959Z,99.90
2022-11-06T22:13:06.768Z,99.90
2022-11-06T22:15:34.429Z,99.90
2022-11-06T22:18:11.357Z,99.90
2022-11-06T22:20:48.516Z,99.90
2022-11-06T22:23:31.751Z,99.90
2022-11-06T22:26:03.607Z,99.90
2022-11-06T22:28:35.136Z,99.90
2022-11-06T22:31:04.112Z,99.90
2022-11-06T22:33:37.466Z,99.90
2022-11-06T22:36:16.177Z,99.90
2022-11-06T22:38:48.207Z,99.90
2022-11-06T22:41:22.421Z,99.90
2022-11-06T22:43:58.475Z,99.90
2022-11-06T22:46:30.855Z,99.90
2022-11-06T22:48:59.987Z,99.90
2022-11-06T22:51:30.607Z,99.90
2022-11-06T22:54:04.190Z,99.90
2022-11-06T22:56:35.646Z,99.90
2022-11-06T22:59:10.080Z,99.90
2022-11-06T23:01:42.928Z,99.90
2022-11-06T23:04:15.917Z,99.90
2022-11-06T23:06:45.954Z,99.90
2022-11-06T23:09:17.544Z,99.90
2022-11-06T23:11:48.120Z,99.90
2022-11-06T23:14:16.655Z,99.90
2022-11-06T23:17:01.493Z,99.90
2022-11-06T23:19:31.586Z,99.90
2022-11-06T23:22:19.201Z,99.90
2022-11-06T23:24:52.648Z,99.90
2022-11-06T23:27:21.403Z,99.90
2022-11-06T23:29:52.544Z,99.90
2022-11-06T23:32:21.023Z,99.90
2022-11-06T23:34:52.647Z,99.90
2022-11-06T23:37:20.681Z,99.90
2022-11-06T23:39:53.975Z,99.90
2022-11-06T23:42:23.856Z,99.90
2022-11-06T23:45:11.488Z,99.90
2022-11-06T23:47:43.823Z,99.90
2022-11-06T23:50:13.983Z,99.90
2022-11-06T23:52:41.519Z,99.90
2022-11-06T23:55:12.005Z,99.90
2022-11-06T23:57:39.934Z,99.90
